sensor_id;sensor_type;location;lat;lon;timestamp;pressure;altitude;pressure_sealevel;temperature;humidity
79625;BME280;69101;45.534;10.218;2023-04-16T00:00:00;99364.06;;;19.87;37.37
79625;BME280;69101;45.534;10.218;2023-04-16T00:02:28;99368.53;;;19.87;37.36
79625;BME280;69101;45.534;10.218;2023-04-16T00:04:53;99373.19;;;19.85;37.19
79625;BME280;69101;45.534;10.218;2023-04-16T00:07:19;99365.28;;;19.85;37.32
79625;BME280;69101;45.534;10.218;2023-04-16T00:09:44;99366.06;;;19.85;37.10
79625;BME280;69101;45.534;10.218;2023-04-16T00:12:10;99369.75;;;19.84;37.44
79625;BME280;69101;45.534;10.218;2023-04-16T00:14:36;99377.84;;;19.83;37.39
79625;BME280;69101;45.534;10.218;2023-04-16T00:17:01;99362.00;;;19.83;37.53
79625;BME280;69101;45.534;10.218;2023-04-16T00:19:27;99362.00;;;19.83;37.50
79625;BME280;69101;45.534;10.218;2023-04-16T00:21:52;99365.03;;;19.80;37.26
79625;BME280;69101;45.534;10.218;2023-04-16T00:24:18;99365.03;;;19.80;37.28
79625;BME280;69101;45.534;10.218;2023-04-16T00:26:43;99366.91;;;19.79;37.15
79625;BME280;69101;45.534;10.218;2023-04-16T00:29:10;99356.34;;;19.79;37.26
79625;BME280;69101;45.534;10.218;2023-04-16T00:31:36;99364.44;;;19.78;37.27
79625;BME280;69101;45.534;10.218;2023-04-16T00:34:01;99354.72;;;19.78;37.33
79625;BME280;69101;45.534;10.218;2023-04-16T00:36:27;99355.72;;;19.77;37.26
79625;BME280;69101;45.534;10.218;2023-04-16T00:38:53;99362.22;;;19.75;37.56
79625;BME280;69101;45.534;10.218;2023-04-16T00:41:19;99356.31;;;19.73;37.20
79625;BME280;69101;45.534;10.218;2023-04-16T00:43:45;99356.31;;;19.73;37.38
79625;BME280;69101;45.534;10.218;2023-04-16T00:46:11;99356.53;;;19.71;37.45
79625;BME280;69101;45.534;10.218;2023-04-16T00:48:37;99354.91;;;19.70;37.29
79625;BME280;69101;45.534;10.218;2023-04-16T00:51:04;99361.22;;;19.69;37.46
79625;BME280;69101;45.534;10.218;2023-04-16T00:53:30;99355.94;;;19.69;37.34
79625;BME280;69101;45.534;10.218;2023-04-16T00:55:56;99354.09;;;19.70;37.36
79625;BME280;69101;45.534;10.218;2023-04-16T00:58:22;99350.03;;;19.67;37.61
79625;BME280;69101;45.534;10.218;2023-04-16T01:00:47;99351.06;;;19.66;37.12
79625;BME280;69101;45.534;10.218;2023-04-16T01:03:13;99349.44;;;19.65;37.44
79625;BME280;69101;45.534;10.218;2023-04-16T01:05:38;99349.25;;;19.67;37.30
79625;BME280;69101;45.534;10.218;2023-04-16T01:08:04;99348.59;;;19.65;37.31
79625;BME280;69101;45.534;10.218;2023-04-16T01:10:30;99347.81;;;19.64;37.46
79625;BME280;69101;45.534;10.218;2023-04-16T01:12:55;99352.88;;;19.66;37.17
79625;BME280;69101;45.534;10.218;2023-04-16T01:15:21;99349.63;;;19.64;37.20
79625;BME280;69101;45.534;10.218;2023-04-16T01:17:46;99338.47;;;19.62;37.51
79625;BME280;69101;45.534;10.218;2023-04-16T01:20:12;99350.84;;;19.61;37.46
79625;BME280;69101;45.534;10.218;2023-04-16T01:22:37;99347.41;;;19.61;37.24
79625;BME280;69101;45.534;10.218;2023-04-16T01:25:02;99346.59;;;19.60;37.21
79625;BME280;69101;45.534;10.218;2023-04-16T01:27:28;99347.41;;;19.61;37.29
79625;BME280;69101;45.534;10.218;2023-04-16T01:29:53;99351.03;;;19.60;37.25
79625;BME280;69101;45.534;10.218;2023-04-16T01:32:20;99346.78;;;19.59;37.22
79625;BME280;69101;45.534;10.218;2023-04-16T01:34:46;99352.47;;;19.56;37.51
79625;BME280;69101;45.534;10.218;2023-04-16T01:37:11;99351.66;;;19.55;37.10
79625;BME280;69101;45.534;10.218;2023-04-16T01:39:37;99345.38;;;19.56;37.19
79625;BME280;69101;45.534;10.218;2023-04-16T01:42:02;99353.28;;;19.56;37.37
79625;BME280;69101;45.534;10.218;2023-04-16T01:44:27;99351.88;;;19.54;37.48
79625;BME280;69101;45.534;10.218;2023-04-16T01:46:53;99352.66;;;19.54;37.40
79625;BME280;69101;45.534;10.218;2023-04-16T01:49:18;99355.50;;;19.53;37.23
79625;BME280;69101;45.534;10.218;2023-04-16T01:51:44;99355.28;;;19.54;37.57
79625;BME280;69101;45.534;10.218;2023-04-16T01:54:12;99351.88;;;19.54;37.48
79625;BME280;69101;45.534;10.218;2023-04-16T01:56:38;99361.00;;;19.51;37.59
79625;BME280;69101;45.534;10.218;2023-04-16T01:59:03;99358.34;;;19.51;37.18
79625;BME280;69101;45.534;10.218;2023-04-16T02:01:29;99359.56;;;19.49;37.32
79625;BME280;69101;45.534;10.218;2023-04-16T02:03:55;99358.53;;;19.50;37.31
79625;BME280;69101;45.534;10.218;2023-04-16T02:06:21;99355.28;;;19.48;37.29
79625;BME280;69101;45.534;10.218;2023-04-16T02:08:46;99357.72;;;19.49;37.62
79625;BME280;69101;45.534;10.218;2023-04-16T02:11:12;99359.75;;;19.47;37.29
79625;BME280;69101;45.534;10.218;2023-04-16T02:13:37;99360.56;;;19.48;37.14
79625;BME280;69101;45.534;10.218;2023-04-16T02:16:03;99354.69;;;19.46;37.56
79625;BME280;69101;45.534;10.218;2023-04-16T02:18:31;99350.41;;;19.45;37.45
79625;BME280;69101;45.534;10.218;2023-04-16T02:20:57;99363.00;;;19.43;37.32
79625;BME280;69101;45.534;10.218;2023-04-16T02:23:26;99351.44;;;19.44;37.23
79625;BME280;69101;45.534;10.218;2023-04-16T02:25:51;99345.53;;;19.42;37.30
79625;BME280;69101;45.534;10.218;2023-04-16T02:28:17;99356.72;;;19.44;37.51
79625;BME280;69101;45.534;10.218;2023-04-16T02:30:42;99355.31;;;19.41;37.43
79625;BME280;69101;45.534;10.218;2023-04-16T02:33:10;99362.00;;;19.44;37.43
79625;BME280;69101;45.534;10.218;2023-04-16T02:35:36;99365.63;;;19.43;37.46
79625;BME280;69101;45.534;10.218;2023-04-16T02:38:03;99364.00;;;19.42;37.64
79625;BME280;69101;45.534;10.218;2023-04-16T02:40:29;99370.91;;;19.43;37.43
79625;BME280;69101;45.534;10.218;2023-04-16T02:42:55;99374.56;;;19.42;37.31
79625;BME280;69101;45.534;10.218;2023-04-16T02:45:21;99376.59;;;19.40;37.39
79625;BME280;69101;45.534;10.218;2023-04-16T02:47:47;99376.94;;;19.36;37.53
79625;BME280;69101;45.534;10.218;2023-04-16T02:50:13;99368.06;;;19.38;37.75
79625;BME280;69101;45.534;10.218;2023-04-16T02:52:38;99370.69;;;19.38;37.62
79625;BME280;69101;45.534;10.218;2023-04-16T02:55:05;99368.25;;;19.36;37.53
79625;BME280;69101;45.534;10.218;2023-04-16T02:57:30;99378.16;;;19.34;37.53
79625;BME280;69101;45.534;10.218;2023-04-16T02:59:56;99380.59;;;19.35;37.57
79625;BME280;69101;45.534;10.218;2023-04-16T03:02:21;99373.69;;;19.34;37.39
79625;BME280;69101;45.534;10.218;2023-04-16T03:04:46;99381.59;;;19.34;37.22
79625;BME280;69101;45.534;10.218;2023-04-16T03:07:12;99382.63;;;19.33;37.32
79625;BME280;69101;45.534;10.218;2023-04-16T03:09:38;99387.91;;;19.33;37.68
79625;BME280;69101;45.534;10.218;2023-04-16T03:12:04;99387.28;;;19.31;37.45
79625;BME280;69101;45.534;10.218;2023-04-16T03:14:29;99389.13;;;19.31;37.52
79625;BME280;69101;45.534;10.218;2023-04-16T03:16:55;99382.00;;;19.31;37.37
79625;BME280;69101;45.534;10.218;2023-04-16T03:19:21;99395.56;;;19.28;37.62
79625;BME280;69101;45.534;10.218;2023-04-16T03:21:46;99387.50;;;19.30;37.56
79625;BME280;69101;45.534;10.218;2023-04-16T03:24:12;99395.56;;;19.28;37.38
79625;BME280;69101;45.534;10.218;2023-04-16T03:26:37;99402.69;;;19.28;37.46
79625;BME280;69101;45.534;10.218;2023-04-16T03:29:03;99398.22;;;19.28;37.74
79625;BME280;69101;45.534;10.218;2023-04-16T03:31:28;99400.84;;;19.28;37.70
79625;BME280;69101;45.534;10.218;2023-04-16T03:33:54;99395.78;;;19.27;37.63
79625;BME280;69101;45.534;10.218;2023-04-16T03:36:19;99400.47;;;19.25;37.59
79625;BME280;69101;45.534;10.218;2023-04-16T03:38:44;99400.47;;;19.25;37.69
79625;BME280;69101;45.534;10.218;2023-04-16T03:41:10;99411.81;;;19.25;37.80
79625;BME280;69101;45.534;10.218;2023-04-16T03:43:35;99405.72;;;19.25;37.74
79625;BME280;69101;45.534;10.218;2023-04-16T03:46:01;99414.03;;;19.22;37.75
79625;BME280;69101;45.534;10.218;2023-04-16T03:48:26;99415.03;;;19.21;37.58
79625;BME280;69101;45.534;10.218;2023-04-16T03:50:51;99411.78;;;19.19;37.86
79625;BME280;69101;45.534;10.218;2023-04-16T03:53:17;99412.59;;;19.19;37.51
79625;BME280;69101;45.534;10.218;2023-04-16T03:55:42;99409.16;;;19.19;37.55
79625;BME280;69101;45.534;10.218;2023-04-16T03:58:08;99417.25;;;19.17;37.54
79625;BME280;69101;45.534;10.218;2023-04-16T04:00:33;99415.63;;;19.16;37.76
79625;BME280;69101;45.534;10.218;2023-04-16T04:02:59;99416.25;;;19.18;37.42
79625;BME280;69101;45.534;10.218;2023-04-16T04:05:24;99412.00;;;19.17;37.36
79625;BME280;69101;45.534;10.218;2023-04-16T04:07:50;99414.03;;;19.15;37.42
79625;BME280;69101;45.534;10.218;2023-04-16T04:10:15;99413.19;;;19.15;37.65
79625;BME280;69101;45.534;10.218;2023-04-16T04:12:41;99420.28;;;19.14;37.53
79625;BME280;69101;45.534;10.218;2023-04-16T04:15:07;99432.66;;;19.14;37.51
79625;BME280;69101;45.534;10.218;2023-04-16T04:17:32;99427.19;;;19.15;37.62
79625;BME280;69101;45.534;10.218;2023-04-16T04:19:58;99429.84;;;19.15;37.46
79625;BME280;69101;45.534;10.218;2023-04-16T04:22:23;99421.94;;;19.15;37.36
79625;BME280;69101;45.534;10.218;2023-04-16T04:24:51;99434.69;;;19.18;37.43
79625;BME280;69101;45.534;10.218;2023-04-16T04:27:17;99438.34;;;19.17;37.27
79625;BME280;69101;45.534;10.218;2023-04-16T04:29:42;99443.03;;;19.15;37.46
79625;BME280;69101;45.534;10.218;2023-04-16T04:32:07;99444.63;;;19.16;37.42
79625;BME280;69101;45.534;10.218;2023-04-16T04:34:33;99441.16;;;19.16;37.38
79625;BME280;69101;45.534;10.218;2023-04-16T04:36:58;99447.25;;;19.16;37.51
79625;BME280;69101;45.534;10.218;2023-04-16T04:39:23;99439.34;;;19.16;37.28
79625;BME280;69101;45.534;10.218;2023-04-16T04:41:49;99446.25;;;19.17;37.30
79625;BME280;69101;45.534;10.218;2023-04-16T04:44:14;99448.91;;;19.17;37.42
79625;BME280;69101;45.534;10.218;2023-04-16T04:46:40;99448.09;;;19.17;37.13
79625;BME280;69101;45.534;10.218;2023-04-16T04:49:05;99447.66;;;19.13;37.31
79625;BME280;69101;45.534;10.218;2023-04-16T04:51:31;99455.38;;;19.15;37.31
79625;BME280;69101;45.534;10.218;2023-04-16T04:53:56;99451.09;;;19.14;37.40
79625;BME280;69101;45.534;10.218;2023-04-16T04:56:22;99445.22;;;19.12;37.41
79625;BME280;69101;45.534;10.218;2023-04-16T04:58:49;99453.13;;;19.12;37.37
79625;BME280;69101;45.534;10.218;2023-04-16T05:01:15;99458.41;;;19.12;37.48
79625;BME280;69101;45.534;10.218;2023-04-16T05:03:40;99461.66;;;19.14;37.25
79625;BME280;69101;45.534;10.218;2023-04-16T05:06:06;99465.31;;;19.13;37.51
79625;BME280;69101;45.534;10.218;2023-04-16T05:08:31;99461.66;;;19.14;37.12
79625;BME280;69101;45.534;10.218;2023-04-16T05:10:57;99470.59;;;19.13;37.47
79625;BME280;69101;45.534;10.218;2023-04-16T05:13:22;99476.66;;;19.13;37.38
79625;BME280;69101;45.534;10.218;2023-04-16T05:15:48;99482.94;;;19.12;37.06
79625;BME280;69101;45.534;10.218;2023-04-16T05:18:13;99480.94;;;19.14;37.18
79625;BME280;69101;45.534;10.218;2023-04-16T05:20:38;99482.97;;;19.19;36.86
79625;BME280;69101;45.534;10.218;2023-04-16T05:23:04;99479.13;;;19.21;36.95
79625;BME280;69101;45.534;10.218;2023-04-16T05:25:30;99476.09;;;19.24;36.91
79625;BME280;69101;45.534;10.218;2023-04-16T05:27:55;99477.09;;;19.23;37.12
79625;BME280;69101;45.534;10.218;2023-04-16T05:30:21;99478.13;;;19.22;37.00
79625;BME280;69101;45.534;10.218;2023-04-16T05:32:46;99477.09;;;19.23;37.24
79625;BME280;69101;45.534;10.218;2023-04-16T05:35:11;99477.31;;;19.22;36.85
79625;BME280;69101;45.534;10.218;2023-04-16T05:37:37;99478.31;;;19.21;36.78
79625;BME280;69101;45.534;10.218;2023-04-16T05:40:02;99481.59;;;19.23;36.84
79625;BME280;69101;45.534;10.218;2023-04-16T05:42:28;99475.50;;;19.22;37.12
79625;BME280;69101;45.534;10.218;2023-04-16T05:44:53;99483.56;;;19.21;36.86
79625;BME280;69101;45.534;10.218;2023-04-16T05:47:19;99487.03;;;19.21;37.02
79625;BME280;69101;45.534;10.218;2023-04-16T05:49:44;99484.78;;;19.18;37.10
79625;BME280;69101;45.534;10.218;2023-04-16T05:52:09;99499.38;;;19.21;36.72
79625;BME280;69101;45.534;10.218;2023-04-16T05:54:35;99490.69;;;19.20;36.98
79625;BME280;69101;45.534;10.218;2023-04-16T05:57:00;99503.88;;;19.20;37.09
79625;BME280;69101;45.534;10.218;2023-04-16T05:59:26;99499.38;;;19.21;37.20
79625;BME280;69101;45.534;10.218;2023-04-16T06:01:53;99493.72;;;19.17;37.06
79625;BME280;69101;45.534;10.218;2023-04-16T06:04:18;99499.00;;;19.17;37.11
79625;BME280;69101;45.534;10.218;2023-04-16T06:06:44;99499.00;;;19.17;37.34
79625;BME280;69101;45.534;10.218;2023-04-16T06:09:09;99494.72;;;19.16;37.11
79625;BME280;69101;45.534;10.218;2023-04-16T06:11:35;99499.16;;;19.16;37.26
79625;BME280;69101;45.534;10.218;2023-04-16T06:14:00;99503.44;;;19.17;37.39
79625;BME280;69101;45.534;10.218;2023-04-16T06:16:25;99503.22;;;19.18;37.35
79625;BME280;69101;45.534;10.218;2023-04-16T06:18:51;99505.09;;;19.18;37.28
79625;BME280;69101;45.534;10.218;2023-04-16T06:21:16;99503.22;;;19.18;37.25
79625;BME280;69101;45.534;10.218;2023-04-16T06:23:42;99511.97;;;19.19;37.16
79625;BME280;69101;45.534;10.218;2023-04-16T06:26:07;99507.50;;;19.19;37.26
79625;BME280;69101;45.534;10.218;2023-04-16T06:28:32;99511.16;;;19.18;37.23
79625;BME280;69101;45.534;10.218;2023-04-16T06:30:59;99513.78;;;19.18;37.30
79625;BME280;69101;45.534;10.218;2023-04-16T06:33:24;99514.44;;;19.20;37.14
79625;BME280;69101;45.534;10.218;2023-04-16T06:35:50;99518.25;;;19.18;37.27
79625;BME280;69101;45.534;10.218;2023-04-16T06:38:18;99524.31;;;19.18;36.89
79625;BME280;69101;45.534;10.218;2023-04-16T06:40:44;99523.34;;;19.19;37.42
79625;BME280;69101;45.534;10.218;2023-04-16T06:43:09;99524.97;;;19.20;37.28
79625;BME280;69101;45.534;10.218;2023-04-16T06:45:35;99529.03;;;19.23;37.42
79625;BME280;69101;45.534;10.218;2023-04-16T06:48:00;99528.59;;;19.19;37.43
79625;BME280;69101;45.534;10.218;2023-04-16T06:50:27;99530.25;;;19.20;37.28
79625;BME280;69101;45.534;10.218;2023-04-16T06:52:53;99525.34;;;19.17;37.32
79625;BME280;69101;45.534;10.218;2023-04-16T06:55:19;99527.59;;;19.20;36.93
79625;BME280;69101;45.534;10.218;2023-04-16T06:57:44;99522.34;;;19.20;37.14
79625;BME280;69101;45.534;10.218;2023-04-16T07:00:10;99525.59;;;19.22;37.26
79625;BME280;69101;45.534;10.218;2023-04-16T07:02:36;99537.75;;;19.23;37.08
79625;BME280;69101;45.534;10.218;2023-04-16T07:05:01;99530.84;;;19.22;37.27
79625;BME280;69101;45.534;10.218;2023-04-16T07:07:27;99537.56;;;19.25;37.11
79625;BME280;69101;45.534;10.218;2023-04-16T07:09:52;99535.91;;;19.24;37.13
79625;BME280;69101;45.534;10.218;2023-04-16T07:12:18;99534.91;;;19.25;37.26
79625;BME280;69101;45.534;10.218;2023-04-16T07:14:45;99533.91;;;19.26;37.18
79625;BME280;69101;45.534;10.218;2023-04-16T07:17:10;99545.25;;;19.26;37.27
79625;BME280;69101;45.534;10.218;2023-04-16T07:19:36;99547.91;;;19.26;37.38
79625;BME280;69101;45.534;10.218;2023-04-16T07:22:01;99544.06;;;19.29;37.47
79625;BME280;69101;45.534;10.218;2023-04-16T07:24:26;99545.25;;;19.26;37.37
79625;BME280;69101;45.534;10.218;2023-04-16T07:26:52;99545.09;;;19.28;37.37
79625;BME280;69101;45.534;10.218;2023-04-16T07:29:17;99539.81;;;19.28;37.59
79625;BME280;69101;45.534;10.218;2023-04-16T07:31:43;99539.59;;;19.29;37.56
79625;BME280;69101;45.534;10.218;2023-04-16T07:34:09;99547.50;;;19.29;37.07
79625;BME280;69101;45.534;10.218;2023-04-16T07:36:34;99543.88;;;19.30;37.55
79625;BME280;69101;45.534;10.218;2023-04-16T07:39:00;99552.41;;;19.32;37.48
79625;BME280;69101;45.534;10.218;2023-04-16T07:41:25;99553.41;;;19.31;37.31
79625;BME280;69101;45.534;10.218;2023-04-16T07:43:51;99555.25;;;19.31;37.23
79625;BME280;69101;45.534;10.218;2023-04-16T07:46:16;99564.59;;;19.33;37.40
79625;BME280;69101;45.534;10.218;2023-04-16T07:48:42;99558.91;;;19.36;37.53
79625;BME280;69101;45.534;10.218;2023-04-16T07:51:07;99563.22;;;19.38;37.31
79625;BME280;69101;45.534;10.218;2023-04-16T07:53:32;99566.66;;;19.38;37.25
79625;BME280;69101;45.534;10.218;2023-04-16T07:55:58;99568.28;;;19.39;37.50
79625;BME280;69101;45.534;10.218;2023-04-16T07:58:23;99566.47;;;19.40;37.31
79625;BME280;69101;45.534;10.218;2023-04-16T08:00:48;99569.91;;;19.40;37.45
79625;BME280;69101;45.534;10.218;2023-04-16T08:03:14;99572.75;;;19.39;37.64
79625;BME280;69101;45.534;10.218;2023-04-16T08:05:40;99584.31;;;19.44;37.41
79625;BME280;69101;45.534;10.218;2023-04-16T08:08:05;99574.97;;;19.42;37.77
79625;BME280;69101;45.534;10.218;2023-04-16T08:10:31;99574.97;;;19.42;37.80
79625;BME280;69101;45.534;10.218;2023-04-16T08:12:59;99579.88;;;19.45;37.54
79625;BME280;69101;45.534;10.218;2023-04-16T08:15:25;99579.88;;;19.45;37.84
79625;BME280;69101;45.534;10.218;2023-04-16T08:17:50;99569.16;;;19.46;37.72
79625;BME280;69101;45.534;10.218;2023-04-16T08:20:16;99571.56;;;19.48;37.89
79625;BME280;69101;45.534;10.218;2023-04-16T08:22:41;99564.47;;;19.48;37.73
79625;BME280;69101;45.534;10.218;2023-04-16T08:25:07;99568.56;;;19.51;37.61
79625;BME280;69101;45.534;10.218;2023-04-16T08:27:32;99571.19;;;19.51;37.41
79625;BME280;69101;45.534;10.218;2023-04-16T08:29:58;99573.00;;;19.50;37.75
79625;BME280;69101;45.534;10.218;2023-04-16T08:32:25;99570.59;;;19.49;37.40
79625;BME280;69101;45.534;10.218;2023-04-16T08:34:51;99584.38;;;19.51;37.32
79625;BME280;69101;45.534;10.218;2023-04-16T08:37:16;99570.97;;;19.52;37.30
79625;BME280;69101;45.534;10.218;2023-04-16T08:39:42;99579.72;;;19.53;37.37
79625;BME280;69101;45.534;10.218;2023-04-16T08:42:12;99578.34;;;19.57;37.49
79625;BME280;69101;45.534;10.218;2023-04-16T08:44:43;99575.69;;;19.57;37.46
79625;BME280;69101;45.534;10.218;2023-04-16T08:47:12;99588.88;;;19.57;37.39
79625;BME280;69101;45.534;10.218;2023-04-16T08:49:43;99581.97;;;19.56;37.45
79625;BME280;69101;45.534;10.218;2023-04-16T08:52:13;99579.34;;;19.56;37.60
79625;BME280;69101;45.534;10.218;2023-04-16T08:54:47;99578.34;;;19.57;37.52
79625;BME280;69101;45.534;10.218;2023-04-16T08:57:18;99584.22;;;19.59;37.54
79625;BME280;69101;45.534;10.218;2023-04-16T08:59:47;99581.75;;;19.57;37.73
79625;BME280;69101;45.534;10.218;2023-04-16T09:02:14;99579.13;;;19.57;37.39
79625;BME280;69101;45.534;10.218;2023-04-16T09:04:40;99581.38;;;19.60;37.69
79625;BME280;69101;45.534;10.218;2023-04-16T09:07:07;99582.41;;;19.59;37.50
79625;BME280;69101;45.534;10.218;2023-04-16T09:09:34;99580.56;;;19.60;37.40
79625;BME280;69101;45.534;10.218;2023-04-16T09:11:59;99581.00;;;19.63;37.41
79625;BME280;69101;45.534;10.218;2023-04-16T09:14:25;99581.19;;;19.62;37.71
79625;BME280;69101;45.534;10.218;2023-04-16T09:16:52;99584.44;;;19.64;37.40
79625;BME280;69101;45.534;10.218;2023-04-16T09:19:18;99583.63;;;19.63;37.25
79625;BME280;69101;45.534;10.218;2023-04-16T09:21:45;99577.53;;;19.63;37.57
79625;BME280;69101;45.534;10.218;2023-04-16T09:24:11;99585.25;;;19.64;37.69
79625;BME280;69101;45.534;10.218;2023-04-16T09:26:37;99588.50;;;19.66;37.35
79625;BME280;69101;45.534;10.218;2023-04-16T09:29:03;99595.41;;;19.67;37.73
79625;BME280;69101;45.534;10.218;2023-04-16T09:31:28;99597.84;;;19.69;37.50
79625;BME280;69101;45.534;10.218;2023-04-16T09:34:11;99590.94;;;19.68;37.70
79625;BME280;69101;45.534;10.218;2023-04-16T09:36:37;99596.44;;;19.66;37.41
79625;BME280;69101;45.534;10.218;2023-04-16T09:39:02;99601.50;;;19.68;37.52
79625;BME280;69101;45.534;10.218;2023-04-16T09:41:30;99590.56;;;19.71;37.72
79625;BME280;69101;45.534;10.218;2023-04-16T09:44:00;99595.84;;;19.71;37.69
79625;BME280;69101;45.534;10.218;2023-04-16T09:46:41;99599.28;;;19.71;37.85
79625;BME280;69101;45.534;10.218;2023-04-16T09:49:13;99589.56;;;19.72;37.31
79625;BME280;69101;45.534;10.218;2023-04-16T09:51:40;99594.63;;;19.73;37.78
79625;BME280;69101;45.534;10.218;2023-04-16T09:54:06;99596.25;;;19.74;37.55
79625;BME280;69101;45.534;10.218;2023-04-16T09:56:31;99588.72;;;19.71;37.70
79625;BME280;69101;45.534;10.218;2023-04-16T09:58:58;99589.34;;;19.73;37.74
79625;BME280;69101;45.534;10.218;2023-04-16T10:01:24;99592.81;;;19.74;37.47
79625;BME280;69101;45.534;10.218;2023-04-16T10:03:52;99585.88;;;19.73;37.40
79625;BME280;69101;45.534;10.218;2023-04-16T10:06:19;99579.41;;;19.75;37.48
79625;BME280;69101;45.534;10.218;2023-04-16T10:08:48;99580.84;;;19.78;37.61
79625;BME280;69101;45.534;10.218;2023-04-16T10:11:15;99579.22;;;19.77;37.53
79625;BME280;69101;45.534;10.218;2023-04-16T10:13:40;99588.75;;;19.78;37.61
79625;BME280;69101;45.534;10.218;2023-04-16T10:16:06;99582.66;;;19.77;37.55
79625;BME280;69101;45.534;10.218;2023-04-16T10:18:35;99580.84;;;19.78;37.58
79625;BME280;69101;45.534;10.218;2023-04-16T10:21:02;99581.44;;;19.80;37.49
79625;BME280;69101;45.534;10.218;2023-04-16T10:23:28;99582.47;;;19.79;37.42
79625;BME280;69101;45.534;10.218;2023-04-16T10:25:54;99578.81;;;19.80;37.37
79625;BME280;69101;45.534;10.218;2023-04-16T10:28:19;99575.97;;;19.81;37.73
79625;BME280;69101;45.534;10.218;2023-04-16T10:30:47;99579.22;;;19.83;37.56
79625;BME280;69101;45.534;10.218;2023-04-16T10:33:22;99574.97;;;19.82;37.79
79625;BME280;69101;45.534;10.218;2023-04-16T10:35:51;99572.13;;;19.84;37.39
79625;BME280;69101;45.534;10.218;2023-04-16T10:38:25;99578.84;;;19.86;37.51
79625;BME280;69101;45.534;10.218;2023-04-16T10:41:11;99573.56;;;19.86;37.57
79625;BME280;69101;45.534;10.218;2023-04-16T10:43:42;99569.28;;;19.85;37.75
79625;BME280;69101;45.534;10.218;2023-04-16T10:46:31;99574.38;;;19.87;37.59
79625;BME280;69101;45.534;10.218;2023-04-16T10:49:00;99567.47;;;19.86;37.73
79625;BME280;69101;45.534;10.218;2023-04-16T10:51:32;99566.47;;;19.87;37.51
79625;BME280;69101;45.534;10.218;2023-04-16T10:56:33;99563.81;;;19.87;37.63
79625;BME280;69101;45.534;10.218;2023-04-16T10:58:59;99566.25;;;19.88;37.63
79625;BME280;69101;45.534;10.218;2023-04-16T11:03:54;99565.25;;;19.89;37.71
79625;BME280;69101;45.534;10.218;2023-04-16T11:06:24;99559.97;;;19.89;37.67
79625;BME280;69101;45.534;10.218;2023-04-16T11:08:51;99566.69;;;19.92;37.43
79625;BME280;69101;45.534;10.218;2023-04-16T11:11:19;99560.59;;;19.91;37.87
79625;BME280;69101;45.534;10.218;2023-04-16T11:13:45;99559.59;;;19.92;37.73
79625;BME280;69101;45.534;10.218;2023-04-16T11:16:15;99553.88;;;19.95;37.63
79625;BME280;69101;45.534;10.218;2023-04-16T11:18:41;99549.81;;;19.93;37.54
79625;BME280;69101;45.534;10.218;2023-04-16T11:21:10;99553.09;;;19.95;37.60
79625;BME280;69101;45.534;10.218;2023-04-16T11:23:50;99555.72;;;19.95;37.59
79625;BME280;69101;45.534;10.218;2023-04-16T11:26:27;99556.34;;;19.97;37.81
79625;BME280;69101;45.534;10.218;2023-04-16T11:28:53;99558.38;;;19.95;37.84
79625;BME280;69101;45.534;10.218;2023-04-16T11:31:19;99557.94;;;19.98;37.71
79625;BME280;69101;45.534;10.218;2023-04-16T11:33:45;99546.78;;;19.96;37.70
79625;BME280;69101;45.534;10.218;2023-04-16T11:36:11;99545.78;;;19.97;38.00
79625;BME280;69101;45.534;10.218;2023-04-16T11:38:37;99554.09;;;20.00;38.11
79625;BME280;69101;45.534;10.218;2023-04-16T11:41:05;99549.63;;;20.01;37.82
79625;BME280;69101;45.534;10.218;2023-04-16T11:43:30;99548.81;;;20.00;37.86
79625;BME280;69101;45.534;10.218;2023-04-16T11:46:03;99547.59;;;20.03;37.82
79625;BME280;69101;45.534;10.218;2023-04-16T11:48:51;99544.97;;;20.03;38.02
79625;BME280;69101;45.534;10.218;2023-04-16T11:51:17;99540.31;;;20.05;37.84
79625;BME280;69101;45.534;10.218;2023-04-16T11:53:48;99540.72;;;20.09;37.94
79625;BME280;69101;45.534;10.218;2023-04-16T11:56:14;99538.28;;;20.07;37.87
79625;BME280;69101;45.534;10.218;2023-04-16T11:58:41;99543.56;;;20.07;37.79
79625;BME280;69101;45.534;10.218;2023-04-16T12:01:07;99538.47;;;20.06;37.92
79625;BME280;69101;45.534;10.218;2023-04-16T12:03:40;99541.53;;;20.09;38.18
79625;BME280;69101;45.534;10.218;2023-04-16T12:06:10;99539.09;;;20.08;38.15
79625;BME280;69101;45.534;10.218;2023-04-16T12:08:36;99533.81;;;20.08;38.01
79625;BME280;69101;45.534;10.218;2023-04-16T12:11:01;99523.44;;;20.06;38.03
79625;BME280;69101;45.534;10.218;2023-04-16T12:13:27;99527.91;;;20.06;38.20
79625;BME280;69101;45.534;10.218;2023-04-16T12:15:53;99525.28;;;20.12;38.00
79625;BME280;69101;45.534;10.218;2023-04-16T12:18:24;99530.78;;;20.11;37.99
79625;BME280;69101;45.534;10.218;2023-04-16T12:20:53;99526.94;;;20.13;38.00
79625;BME280;69101;45.534;10.218;2023-04-16T12:25:47;99529.56;;;20.13;37.93
79625;BME280;69101;45.534;10.218;2023-04-16T12:28:14;99521.66;;;20.13;38.12
79625;BME280;69101;45.534;10.218;2023-04-16T12:30:50;99518.59;;;20.16;38.10
79625;BME280;69101;45.534;10.218;2023-04-16T12:33:17;99519.41;;;20.17;38.17
79625;BME280;69101;45.534;10.218;2023-04-16T12:35:42;99515.75;;;20.18;38.31
79625;BME280;69101;45.534;10.218;2023-04-16T12:38:09;99514.72;;;20.19;38.40
79625;BME280;69101;45.534;10.218;2023-04-16T12:40:35;99517.38;;;20.19;38.34
79625;BME280;69101;45.534;10.218;2023-04-16T12:43:01;99514.53;;;20.20;38.41
79625;BME280;69101;45.534;10.218;2023-04-16T12:45:27;99512.09;;;20.19;38.47
79625;BME280;69101;45.534;10.218;2023-04-16T12:47:53;99514.53;;;20.20;38.57
79625;BME280;69101;45.534;10.218;2023-04-16T12:50:20;99509.25;;;20.20;38.49
79625;BME280;69101;45.534;10.218;2023-04-16T12:52:45;99506.25;;;20.23;38.50